createdAt,value
2023-05-19T00:01:21.285Z,11.20
2023-05-19T00:03:54.657Z,11.12
2023-05-19T00:06:33.283Z,11.12
2023-05-19T00:09:09.927Z,11.05
2023-05-19T00:11:39.968Z,10.96
2023-05-19T00:14:09.744Z,10.99
2023-05-19T00:16:40.601Z,11.04
2023-05-19T00:19:10.662Z,11.08
2023-05-19T00:21:38.987Z,11.06
2023-05-19T00:24:07.072Z,11.07
2023-05-19T00:26:34.271Z,11.20
2023-05-19T00:29:01.170Z,11.12
2023-05-19T00:31:28.265Z,11.02
2023-05-19T00:33:55.301Z,11.11
2023-05-19T00:36:22.208Z,11.11
2023-05-19T00:38:49.108Z,11.17
2023-05-19T00:41:16.034Z,11.11
2023-05-19T00:43:42.898Z,11.00
2023-05-19T00:46:11.245Z,11.20
2023-05-19T00:48:38.260Z,11.18
2023-05-19T00:51:06.749Z,11.06
2023-05-19T00:53:35.262Z,10.99
2023-05-19T00:56:03.526Z,10.98
2023-05-19T00:58:32.814Z,11.02
2023-05-19T01:01:05.365Z,10.98
2023-05-19T01:03:37.170Z,10.99
2023-05-19T01:06:08.197Z,11.01
2023-05-19T01:08:38.077Z,11.03
2023-05-19T01:11:08.802Z,10.94
2023-05-19T01:13:36.776Z,10.94
2023-05-19T01:16:24.322Z,10.91
2023-05-19T01:19:15.614Z,10.85
2023-05-19T01:22:13.357Z,10.85
2023-05-19T01:25:45.868Z,10.74
2023-05-19T01:28:24.744Z,10.72
2023-05-19T01:30:57.295Z,10.65
2023-05-19T01:33:25.287Z,10.55
2023-05-19T01:35:55.149Z,10.67
2023-05-19T01:38:23.676Z,10.68
2023-05-19T01:40:52.496Z,10.63
2023-05-19T01:43:23.424Z,10.68
2023-05-19T01:45:51.714Z,10.69
2023-05-19T01:48:19.500Z,10.62
2023-05-19T01:50:46.606Z,10.63
2023-05-19T01:53:13.771Z,10.53
2023-05-19T01:55:52.420Z,10.47
2023-05-19T01:58:49.005Z,10.47
2023-05-19T02:01:47.359Z,10.45
2023-05-19T02:04:44.256Z,10.46
2023-05-19T02:07:37.223Z,10.36
2023-05-19T02:10:15.366Z,10.19
2023-05-19T02:12:43.134Z,10.22
2023-05-19T02:15:17.692Z,10.27
2023-05-19T02:17:51.979Z,10.28
2023-05-19T02:20:19.399Z,10.26
2023-05-19T02:22:46.400Z,10.20
2023-05-19T02:25:13.263Z,10.22
2023-05-19T02:27:41.162Z,10.14
2023-05-19T02:30:09.932Z,10.25
2023-05-19T02:32:36.916Z,10.12
2023-05-19T02:35:04.489Z,9.98
2023-05-19T02:37:32.714Z,10.07
2023-05-19T02:39:59.745Z,10.01
2023-05-19T02:42:26.624Z,9.95
2023-05-19T02:44:55.162Z,9.98
2023-05-19T02:47:22.110Z,9.93
2023-05-19T02:49:49.001Z,9.92
2023-05-19T02:52:15.973Z,9.85
2023-05-19T02:54:42.975Z,9.78
2023-05-19T02:57:11.350Z,9.64
2023-05-19T02:59:38.297Z,9.56
2023-05-19T03:02:05.413Z,9.70
2023-05-19T03:04:32.306Z,9.68
2023-05-19T03:06:59.162Z,9.66
2023-05-19T03:09:26.044Z,9.57
2023-05-19T03:11:52.885Z,9.67
2023-05-19T03:14:24.268Z,9.71
2023-05-19T03:16:51.542Z,9.75
2023-05-19T03:19:18.655Z,9.73
2023-05-19T03:21:45.551Z,9.61
2023-05-19T03:24:12.414Z,9.61
2023-05-19T03:26:39.414Z,9.66
2023-05-19T03:29:06.251Z,9.66
2023-05-19T03:31:33.133Z,9.59
2023-05-19T03:34:00.130Z,9.64
2023-05-19T03:36:32.225Z,9.54
2023-05-19T03:38:59.622Z,9.49
2023-05-19T03:41:26.538Z,9.63
2023-05-19T03:43:53.385Z,9.68
2023-05-19T03:46:20.389Z,9.64
2023-05-19T03:48:47.367Z,9.55
2023-05-19T03:51:14.262Z,9.58
2023-05-19T03:53:41.525Z,9.49
2023-05-19T03:56:11.828Z,9.47
2023-05-19T03:58:41.009Z,9.42
2023-05-19T04:01:07.911Z,9.48
2023-05-19T04:03:34.816Z,9.33
2023-05-19T04:06:01.777Z,9.34
2023-05-19T04:08:28.636Z,9.36
2023-05-19T04:10:55.609Z,9.35
2023-05-19T04:13:22.463Z,9.16
2023-05-19T04:15:49.486Z,9.11
2023-05-19T04:18:16.398Z,9.14
2023-05-19T04:20:43.233Z,9.29
2023-05-19T04:23:10.691Z,9.39
2023-05-19T04:25:37.761Z,9.34
2023-05-19T04:28:04.723Z,9.27
2023-05-19T04:30:31.788Z,9.32
2023-05-19T04:33:01.272Z,9.33
2023-05-19T04:35:28.266Z,9.39
2023-05-19T04:37:55.829Z,9.59
2023-05-19T04:40:24.028Z,9.55
2023-05-19T04:42:52.526Z,9.59
2023-05-19T04:45:19.556Z,9.68
2023-05-19T04:47:49.241Z,9.73
2023-05-19T04:50:17.156Z,9.81
2023-05-19T04:52:45.828Z,9.83
2023-05-19T04:55:13.513Z,9.81
2023-05-19T04:57:40.503Z,9.76
2023-05-19T05:00:12.998Z,9.84
2023-05-19T05:02:39.905Z,9.82
2023-05-19T05:05:08.102Z,9.88
2023-05-19T05:07:34.987Z,9.89
2023-05-19T05:10:01.868Z,9.98
2023-05-19T05:12:29.005Z,10.00
2023-05-19T05:14:56.231Z,10.07
2023-05-19T05:17:23.514Z,10.06
2023-05-19T05:19:50.882Z,10.08
2023-05-19T05:22:18.573Z,10.10
2023-05-19T05:24:46.282Z,10.16
2023-05-19T05:27:13.849Z,10.20
2023-05-19T05:29:40.832Z,10.29
2023-05-19T05:32:08.273Z,10.38
2023-05-19T05:34:36.187Z,10.32
2023-05-19T05:37:03.094Z,10.46
2023-05-19T05:39:30.260Z,10.52
2023-05-19T05:41:57.130Z,10.69
2023-05-19T05:44:23.986Z,10.72
2023-05-19T05:46:51.367Z,10.88
2023-05-19T05:49:18.668Z,11.00
2023-05-19T05:52:01.481Z,11.22
2023-05-19T05:54:32.554Z,10.99
2023-05-19T05:57:00.006Z,11.13
2023-05-19T05:59:27.690Z,11.21
2023-05-19T06:01:54.619Z,11.23
2023-05-19T06:04:21.487Z,11.42
2023-05-19T06:06:48.359Z,11.32
2023-05-19T06:09:15.273Z,11.37
2023-05-19T06:11:42.129Z,11.10
2023-05-19T06:14:09.025Z,11.12
2023-05-19T06:16:35.965Z,11.24
2023-05-19T06:19:02.911Z,11.45
2023-05-19T06:21:29.787Z,11.49
2023-05-19T06:23:56.706Z,11.67
2023-05-19T06:26:23.553Z,11.65
2023-05-19T06:28:50.411Z,11.68
2023-05-19T06:31:17.746Z,11.67
2023-05-19T06:33:44.666Z,11.85
2023-05-19T06:36:12.153Z,12.02
2023-05-19T06:38:39.013Z,11.77
2023-05-19T06:41:05.873Z,11.76
2023-05-19T06:43:32.936Z,11.58
2023-05-19T06:45:59.845Z,11.45
2023-05-19T06:48:26.721Z,11.45
2023-05-19T06:50:53.590Z,11.42
2023-05-19T06:53:21.558Z,11.32
2023-05-19T06:55:59.319Z,11.52
2023-05-19T06:58:27.351Z,11.57
2023-05-19T07:00:54.211Z,11.69
2023-05-19T07:03:21.150Z,11.62
2023-05-19T07:05:48.209Z,11.55
2023-05-19T07:08:15.164Z,11.68
2023-05-19T07:10:42.005Z,11.90
2023-05-19T07:13:08.957Z,11.63
2023-05-19T07:15:35.841Z,11.70
2023-05-19T07:18:02.772Z,11.84
2023-05-19T07:20:29.786Z,12.10
2023-05-19T07:22:56.667Z,12.24
2023-05-19T07:25:23.949Z,12.35
2023-05-19T07:27:50.972Z,12.53
2023-05-19T07:30:17.834Z,12.41
2023-05-19T07:32:44.760Z,12.43
2023-05-19T07:35:11.842Z,12.51
2023-05-19T07:37:38.732Z,12.38
2023-05-19T07:40:09.608Z,12.41
2023-05-19T07:42:36.465Z,12.62
2023-05-19T07:45:03.767Z,12.57
2023-05-19T07:47:31.409Z,12.44
2023-05-19T07:49:58.318Z,12.49
2023-05-19T07:52:25.219Z,12.46
2023-05-19T07:54:52.082Z,12.51
2023-05-19T07:57:19.329Z,12.48
2023-05-19T07:59:46.186Z,12.40
2023-05-19T08:02:13.164Z,12.54
2023-05-19T08:04:40.110Z,12.36
2023-05-19T08:07:07.039Z,12.48
2023-05-19T08:09:33.901Z,12.41
2023-05-19T08:12:01.870Z,12.44
2023-05-19T08:14:28.787Z,12.40
2023-05-19T08:16:55.704Z,12.50
2023-05-19T08:19:22.928Z,12.56
2023-05-19T08:21:49.882Z,12.65
2023-05-19T08:24:16.816Z,12.75
2023-05-19T08:26:44.804Z,12.59
2023-05-19T08:29:11.690Z,12.69
2023-05-19T08:31:38.565Z,12.77
2023-05-19T08:34:05.470Z,13.01
2023-05-19T08:36:33.995Z,13.07
2023-05-19T08:39:01.064Z,13.00
2023-05-19T08:41:27.942Z,13.09
2023-05-19T08:43:55.408Z,13.12
2023-05-19T08:46:25.372Z,13.14
2023-05-19T08:48:59.398Z,13.29
2023-05-19T08:52:14.093Z,13.26
2023-05-19T08:54:51.119Z,13.24
2023-05-19T08:57:19.202Z,13.19
2023-05-19T08:59:46.428Z,13.30
2023-05-19T09:02:14.621Z,13.35
2023-05-19T09:04:46.096Z,13.40
2023-05-19T09:07:15.615Z,13.41
2023-05-19T09:09:44.217Z,13.47
2023-05-19T09:12:11.855Z,13.59
2023-05-19T09:14:39.160Z,13.77
2023-05-19T09:17:06.807Z,13.84
2023-05-19T09:19:33.821Z,14.01
2023-05-19T09:22:03.972Z,14.02
2023-05-19T09:24:31.187Z,14.18
2023-05-19T09:27:00.085Z,14.21
2023-05-19T09:29:28.434Z,14.48
2023-05-19T09:32:01.151Z,14.76
2023-05-19T09:34:28.208Z,14.69
2023-05-19T09:36:55.134Z,14.56
2023-05-19T09:39:26.120Z,14.54
2023-05-19T09:41:54.907Z,14.67
2023-05-19T09:44:29.952Z,14.56
2023-05-19T09:46:58.610Z,14.42
2023-05-19T09:49:31.516Z,14.32
2023-05-19T09:52:00.369Z,14.20
2023-05-19T09:54:32.541Z,14.13
2023-05-19T09:57:02.621Z,14.21
2023-05-19T09:59:32.266Z,14.31
2023-05-19T10:02:01.617Z,14.62
2023-05-19T10:04:30.403Z,14.86
2023-05-19T10:07:05.691Z,15.29
2023-05-19T10:09:34.472Z,15.58
2023-05-19T10:12:02.744Z,15.49
2023-05-19T10:14:30.508Z,15.10
2023-05-19T10:16:59.729Z,15.25
2023-05-19T10:19:29.816Z,15.43
2023-05-19T10:21:57.124Z,15.38
2023-05-19T10:24:24.116Z,15.09
2023-05-19T10:27:03.727Z,14.75
2023-05-19T10:29:35.093Z,14.95
2023-05-19T10:32:09.745Z,14.90
2023-05-19T10:35:10.742Z,14.94
2023-05-19T10:38:11.390Z,14.80
2023-05-19T10:41:21.790Z,14.78
2023-05-19T10:44:25.159Z,14.58
2023-05-19T10:46:54.177Z,14.48
2023-05-19T10:49:23.416Z,14.68
2023-05-19T10:51:52.726Z,14.57
2023-05-19T10:54:43.730Z,14.59
2023-05-19T10:57:16.712Z,14.62
2023-05-19T10:59:49.738Z,14.73
2023-05-19T11:02:42.001Z,14.53
2023-05-19T11:05:13.040Z,14.38
2023-05-19T11:07:43.695Z,14.37
2023-05-19T11:10:11.724Z,14.44
2023-05-19T11:12:45.268Z,14.05
2023-05-19T11:15:14.337Z,14.05
2023-05-19T11:17:43.071Z,14.18
2023-05-19T11:20:22.524Z,14.37
2023-05-19T11:23:09.313Z,14.49
2023-05-19T11:25:47.333Z,14.53
2023-05-19T11:28:26.002Z,14.29
2023-05-19T11:30:57.913Z,14.31
2023-05-19T11:33:29.313Z,14.30
2023-05-19T11:36:00.083Z,14.33
2023-05-19T11:38:28.721Z,14.12
2023-05-19T11:40:57.627Z,13.92
2023-05-19T11:43:26.141Z,14.09
2023-05-19T11:45:55.120Z,14.20
2023-05-19T11:48:22.840Z,14.12
2023-05-19T11:50:51.122Z,13.93
2023-05-19T11:53:20.038Z,14.01
2023-05-19T11:55:48.599Z,14.17
2023-05-19T11:58:17.055Z,14.08
2023-05-19T12:00:48.025Z,14.00
2023-05-19T12:03:15.304Z,13.92
2023-05-19T12:05:48.723Z,13.98
2023-05-19T12:08:18.861Z,14.08
2023-05-19T12:13:17.227Z,14.26
2023-05-19T12:15:44.480Z,14.16
2023-05-19T12:18:11.454Z,14.34
2023-05-19T12:20:38.523Z,14.42
2023-05-19T12:23:05.977Z,14.44
2023-05-19T12:25:33.128Z,14.43
2023-05-19T12:28:03.242Z,14.48
2023-05-19T12:30:32.276Z,14.37
2023-05-19T12:32:59.853Z,14.26
2023-05-19T12:35:34.656Z,14.28
2023-05-19T12:38:05.637Z,14.28
2023-05-19T12:40:37.917Z,14.11
2023-05-19T12:43:05.776Z,14.13
2023-05-19T12:45:42.740Z,14.03
2023-05-19T12:48:12.937Z,13.92
2023-05-19T12:50:39.937Z,13.92
2023-05-19T12:53:11.313Z,14.12
2023-05-19T12:55:45.219Z,14.25
2023-05-19T12:58:13.130Z,14.25
2023-05-19T13:00:45.724Z,14.23
2023-05-19T13:03:19.976Z,13.97
2023-05-19T13:05:49.847Z,14.07
2023-05-19T13:08:23.407Z,14.04
2023-05-19T13:10:50.379Z,13.88
2023-05-19T13:13:17.876Z,13.95
2023-05-19T13:15:46.590Z,13.81
2023-05-19T13:18:14.552Z,14.06
2023-05-19T13:20:44.607Z,14.21
2023-05-19T13:23:13.009Z,14.21
2023-05-19T13:25:41.435Z,14.23
2023-05-19T13:28:08.927Z,14.12
2023-05-19T13:30:38.767Z,14.17
2023-05-19T13:33:06.148Z,14.24
2023-05-19T13:35:37.573Z,14.17
2023-05-19T13:38:12.681Z,14.19
2023-05-19T13:40:40.538Z,14.29
2023-05-19T13:43:08.926Z,14.33
2023-05-19T13:45:35.971Z,14.17
2023-05-19T13:48:02.984Z,14.15
2023-05-19T13:50:29.929Z,14.30
2023-05-19T13:52:56.931Z,14.41
2023-05-19T13:55:23.973Z,14.45
2023-05-19T13:57:51.096Z,14.53
2023-05-19T14:00:19.160Z,14.38
2023-05-19T14:02:46.565Z,14.47
2023-05-19T14:05:13.639Z,14.24
2023-05-19T14:07:40.703Z,14.19
2023-05-19T14:10:08.410Z,14.22
2023-05-19T14:12:49.411Z,14.23
2023-05-19T14:15:23.058Z,14.23
2023-05-19T14:17:49.988Z,14.25
2023-05-19T14:20:16.969Z,14.12
2023-05-19T14:22:43.830Z,14.30
2023-05-19T14:25:10.799Z,14.24
2023-05-19T14:27:40.133Z,14.28
2023-05-19T14:30:08.624Z,14.05
2023-05-19T14:32:36.151Z,13.98
2023-05-19T14:35:03.220Z,14.05
2023-05-19T14:37:32.089Z,14.26
2023-05-19T14:39:59.803Z,14.00
2023-05-19T14:42:26.703Z,13.98
2023-05-19T14:44:53.609Z,14.17
2023-05-19T14:47:20.479Z,14.02
2023-05-19T14:49:47.479Z,14.11
2023-05-19T14:52:14.356Z,14.12
2023-05-19T14:54:41.273Z,14.36
2023-05-19T14:57:08.305Z,13.98
2023-05-19T14:59:38.826Z,13.93
2023-05-19T15:02:06.235Z,13.78
2023-05-19T15:04:33.125Z,13.88
2023-05-19T15:09:29.843Z,14.01
2023-05-19T15:11:56.772Z,14.01
2023-05-19T15:14:24.418Z,13.95
2023-05-19T15:16:52.016Z,14.08
2023-05-19T15:19:18.913Z,13.77
2023-05-19T15:21:46.006Z,13.75
2023-05-19T15:24:12.859Z,13.59
2023-05-19T15:26:39.816Z,13.63
2023-05-19T15:29:06.713Z,13.62
2023-05-19T15:31:35.769Z,13.64
2023-05-19T15:34:04.277Z,13.63
2023-05-19T15:36:31.712Z,13.76
2023-05-19T15:38:58.609Z,13.61
2023-05-19T15:41:25.956Z,13.78
2023-05-19T15:43:53.770Z,13.88
2023-05-19T15:46:20.761Z,13.72
2023-05-19T15:48:47.737Z,13.76
2023-05-19T15:51:14.798Z,13.99
2023-05-19T15:53:41.661Z,13.96
2023-05-19T15:56:08.578Z,14.05
2023-05-19T15:58:35.451Z,14.19
2023-05-19T16:01:03.372Z,14.31
2023-05-19T16:03:30.496Z,14.12
2023-05-19T16:05:57.942Z,14.04
2023-05-19T16:08:25.353Z,13.85
2023-05-19T16:10:52.271Z,13.74
2023-05-19T16:13:19.133Z,13.93
2023-05-19T16:15:45.995Z,13.76
2023-05-19T16:18:13.187Z,13.63
2023-05-19T16:20:40.145Z,13.82
2023-05-19T16:23:07.070Z,13.78
2023-05-19T16:25:34.059Z,13.69
2023-05-19T16:28:00.938Z,13.62
2023-05-19T16:30:28.279Z,13.73
2023-05-19T16:32:55.162Z,13.60
2023-05-19T16:35:22.276Z,13.65
2023-05-19T16:37:49.431Z,13.61
2023-05-19T16:40:16.398Z,13.77
2023-05-19T16:42:43.278Z,13.81
2023-05-19T16:45:10.646Z,13.78
2023-05-19T16:47:37.729Z,13.77
2023-05-19T16:50:04.985Z,13.76
2023-05-19T16:52:31.906Z,13.86
2023-05-19T16:54:58.794Z,13.90
2023-05-19T16:57:25.722Z,13.67
2023-05-19T16:59:52.552Z,13.68
2023-05-19T17:02:19.510Z,13.65
2023-05-19T17:04:46.455Z,13.33
2023-05-19T17:07:17.035Z,13.28
2023-05-19T17:09:44.877Z,13.45
2023-05-19T17:12:11.749Z,13.54
2023-05-19T17:14:38.691Z,13.63
2023-05-19T17:17:05.646Z,13.61
2023-05-19T17:19:32.735Z,13.62
2023-05-19T17:21:59.743Z,13.69
2023-05-19T17:24:28.937Z,13.71
2023-05-19T17:26:56.041Z,13.77
2023-05-19T17:29:23.134Z,13.86
2023-05-19T17:31:50.062Z,13.85
2023-05-19T17:34:16.923Z,13.80
2023-05-19T17:36:43.780Z,13.87
2023-05-19T17:39:10.861Z,13.80
2023-05-19T17:41:37.725Z,13.81
2023-05-19T17:44:06.873Z,13.85
2023-05-19T17:46:34.958Z,13.89
2023-05-19T17:49:02.204Z,13.92
2023-05-19T17:51:29.546Z,13.92
2023-05-19T17:53:56.847Z,13.90
2023-05-19T17:56:25.214Z,13.86
2023-05-19T17:58:52.534Z,13.88
2023-05-19T18:01:23.955Z,13.87
2023-05-19T18:03:51.154Z,13.86
2023-05-19T18:06:19.422Z,13.81
2023-05-19T18:08:50.655Z,13.66
2023-05-19T18:11:18.873Z,13.77
2023-05-19T18:13:45.871Z,13.68
2023-05-19T18:16:15.350Z,13.60
2023-05-19T18:18:43.776Z,13.59
2023-05-19T18:21:17.915Z,13.57
2023-05-19T18:23:46.098Z,13.57
2023-05-19T18:26:13.693Z,13.59
2023-05-19T18:28:41.668Z,13.60
2023-05-19T18:31:17.583Z,13.64
2023-05-19T18:33:45.322Z,13.66
2023-05-19T18:36:12.525Z,13.68
2023-05-19T18:38:41.448Z,13.66
2023-05-19T18:41:09.452Z,13.69
2023-05-19T18:43:36.356Z,13.67
2023-05-19T18:46:03.292Z,13.70
2023-05-19T18:48:30.384Z,13.69
2023-05-19T18:50:57.472Z,13.64
2023-05-19T18:53:24.583Z,13.67
2023-05-19T18:55:51.466Z,13.65
2023-05-19T18:58:19.251Z,13.62
2023-05-19T19:00:46.155Z,13.61
2023-05-19T19:03:13.175Z,13.56
2023-05-19T19:05:40.321Z,13.55
2023-05-19T19:08:07.259Z,13.48
2023-05-19T19:10:37.464Z,13.43
2023-05-19T19:13:04.422Z,13.43
2023-05-19T19:15:31.846Z,13.44
2023-05-19T19:17:58.727Z,13.39
2023-05-19T19:20:25.735Z,13.31
2023-05-19T19:22:53.656Z,13.32
2023-05-19T19:25:23.129Z,13.21
2023-05-19T19:27:50.738Z,13.06
2023-05-19T19:30:17.813Z,13.09
2023-05-19T19:32:44.795Z,13.20
2023-05-19T19:35:11.889Z,13.20
2023-05-19T19:37:38.757Z,13.20
2023-05-19T19:40:06.906Z,13.22
2023-05-19T19:42:34.302Z,13.11
2023-05-19T19:45:01.219Z,13.07
2023-05-19T19:47:28.130Z,13.14
2023-05-19T19:49:56.104Z,13.07
2023-05-19T19:52:22.992Z,13.04
2023-05-19T19:54:49.857Z,12.98
2023-05-19T19:57:19.501Z,13.02
2023-05-19T19:59:46.360Z,12.97
2023-05-19T20:02:14.170Z,12.89
2023-05-19T20:04:41.194Z,12.82
2023-05-19T20:07:08.098Z,12.74
2023-05-19T20:09:34.936Z,12.81
2023-05-19T20:12:01.874Z,12.78
2023-05-19T20:14:28.742Z,12.80
2023-05-19T20:16:55.833Z,12.82
2023-05-19T20:19:25.273Z,12.81
2023-05-19T20:21:52.154Z,12.77
2023-05-19T20:24:19.041Z,12.73
2023-05-19T20:26:45.945Z,12.78
2023-05-19T20:29:12.825Z,12.77
2023-05-19T20:31:39.730Z,12.78
2023-05-19T20:34:06.682Z,12.73
2023-05-19T20:36:33.546Z,12.73
2023-05-19T20:39:00.404Z,12.72
2023-05-19T20:41:27.571Z,12.73
2023-05-19T20:43:55.231Z,12.69
2023-05-19T20:46:22.196Z,12.65
2023-05-19T20:48:49.122Z,12.72
2023-05-19T20:51:15.962Z,12.71
2023-05-19T20:53:42.798Z,12.70
2023-05-19T20:56:10.832Z,12.67
2023-05-19T20:58:38.128Z,12.60
2023-05-19T21:01:20.789Z,12.66
2023-05-19T21:03:47.679Z,12.62
2023-05-19T21:06:14.527Z,12.66
2023-05-19T21:08:41.481Z,12.66
2023-05-19T21:11:08.313Z,12.50
2023-05-19T21:13:39.249Z,12.47
2023-05-19T21:16:06.442Z,12.47
2023-05-19T21:18:35.073Z,12.49
2023-05-19T21:21:04.149Z,12.55
2023-05-19T21:23:31.226Z,12.49
2023-05-19T21:25:59.784Z,12.58
2023-05-19T21:28:26.701Z,12.57
2023-05-19T21:30:53.831Z,12.49
2023-05-19T21:33:20.859Z,12.46
2023-05-19T21:35:47.803Z,12.37
2023-05-19T21:38:23.262Z,12.42
2023-05-19T21:40:50.682Z,12.39
2023-05-19T21:43:17.539Z,12.42
2023-05-19T21:45:44.406Z,12.40
2023-05-19T21:48:11.653Z,12.39
2023-05-19T21:50:39.099Z,12.33
2023-05-19T21:53:06.085Z,12.34
2023-05-19T21:55:33.112Z,12.20
2023-05-19T21:58:01.673Z,12.27
2023-05-19T22:00:29.636Z,12.26
2023-05-19T22:02:57.103Z,12.20
2023-05-19T22:05:24.063Z,12.26
2023-05-19T22:07:50.985Z,12.24
2023-05-19T22:10:17.867Z,12.15
2023-05-19T22:12:44.733Z,12.27
2023-05-19T22:15:13.536Z,12.24
2023-05-19T22:17:40.777Z,12.23
2023-05-19T22:20:08.625Z,12.21
2023-05-19T22:22:35.831Z,12.24
2023-05-19T22:25:03.873Z,12.25
2023-05-19T22:27:30.913Z,12.24
2023-05-19T22:29:59.885Z,12.26
2023-05-19T22:32:26.924Z,12.23
2023-05-19T22:34:53.988Z,12.22
2023-05-19T22:37:23.192Z,12.11
2023-05-19T22:39:50.084Z,12.11
2023-05-19T22:42:16.951Z,12.20
2023-05-19T22:44:43.844Z,12.24
2023-05-19T22:47:13.754Z,12.08
2023-05-19T22:49:42.601Z,12.10
2023-05-19T22:52:11.233Z,12.13
2023-05-19T22:54:38.317Z,12.21
2023-05-19T22:57:05.690Z,12.21
2023-05-19T22:59:32.569Z,12.24
2023-05-19T23:01:59.438Z,12.08
2023-05-19T23:04:26.582Z,12.03
2023-05-19T23:06:53.498Z,12.02
2023-05-19T23:09:20.393Z,12.15
2023-05-19T23:11:47.389Z,12.00
2023-05-19T23:14:14.311Z,12.00
2023-05-19T23:16:41.194Z,12.03
2023-05-19T23:19:08.154Z,12.10
2023-05-19T23:21:35.030Z,12.07
2023-05-19T23:24:02.035Z,12.10
2023-05-19T23:26:28.936Z,11.98
2023-05-19T23:28:55.787Z,11.95
2023-05-19T23:31:22.752Z,11.97
2023-05-19T23:33:49.753Z,12.03
2023-05-19T23:36:17.874Z,11.94
2023-05-19T23:38:44.759Z,11.97
2023-05-19T23:41:11.700Z,12.05
2023-05-19T23:43:39.492Z,12.13
2023-05-19T23:46:06.509Z,12.10
2023-05-19T23:48:33.869Z,12.01
2023-05-19T23:51:00.933Z,11.83
2023-05-19T23:53:27.815Z,11.75
2023-05-19T23:55:55.643Z,11.89
2023-05-19T23:58:23.666Z,11.98
